Overview Statistics Trail Chart Weather Telemetry Raw packets
 

This is the latest recevied weather packets stored in our database for station/object KK7MLS-13. If no packets are shown the sender has not sent any weather packets the latest 10 day(s).

<< 6 7 8 9 10 11 12 >>
Time Temp. Humidity Pressure Rain* Wind** Luminosity Snow
1788633250 20.56° C 60% 1017.6 hPa 0 mm - 581 W/m² -
1788632939 20° C 63% 1017.5 hPa 0 mm - 627 W/m² -
1788632638 20.56° C 61% 1017.7 hPa 0 mm - 630 W/m² -
1788632335 20° C 63% 1017.5 hPa 0 mm - 628 W/m² -
1788632034 19.44° C 65% 1017.7 hPa 0 mm - 611 W/m² -
1788631733 20° C 63% 1017.7 hPa 0 mm - 588 W/m² -
1788631448 20° C 63% 1017.7 hPa 0 mm - 587 W/m² -
1788631124 18.89° C 66% 1017.7 hPa 0 mm - 613 W/m² -
1788630823 18.89° C 68% 1017.7 hPa 0 mm - 635 W/m² -
1788630519 18.33° C 68% 1017.6 hPa 0 mm - 519 W/m² -
1788630215 18.89° C 66% 1017.9 hPa 0 mm - 151 W/m² -
1788629910 18.89° C 70% 1017.8 hPa 0 mm - 405 W/m² -
1788629606 18.33° C 70% 1017.8 hPa 0 mm - 486 W/m² -
1788629306 17.78° C 70% 1017.9 hPa 0 mm - 364 W/m² -
1788629004 17.78° C 71% 1017.6 hPa 0 mm - 170 W/m² -
1788628700 17.78° C 71% 1017.8 hPa 0 mm - 195 W/m² -
1788628397 18.33° C 71% 1017.9 hPa 0 mm - 292 W/m² -
1788628093 18.33° C 71% 1017.8 hPa 0 mm - 219 W/m² -
1788627803 18.33° C 73% 1017.9 hPa 0 mm - 342 W/m² -
1788627487 17.78° C 73% 1018 hPa 0 mm - 471 W/m² -
1788627184 17.22° C 74% 1018 hPa 0 mm - 424 W/m² -
1788626883 16.67° C 79% 1017.9 hPa 0 mm - 364 W/m² -
1788626578 16.11° C 81% 1018 hPa 0 mm - 383 W/m² -
1788626274 15.56° C 82% 1017.9 hPa 0 mm - 66 W/m² -
1788625974 15.56° C 83% 1017.6 hPa 0 mm - 322 W/m² -

* Rain latest hour (hover to see other rain measurements)
** Current wind speed in m/s (hover to see current wind gust speed)